KCAK/CAK METAR and TAF weather

Enter ICAO airport designator
Station Type Date Time Source
KCAK METAR 2018/07/20 13:51 UTC NOAA

KCAK 201351Z 18013KT 10SM SCT055 SCT150 BKN250 26/17 A2998 RMK AO2 SLP141 T02610167


Station Type Date Time Source
KCAK Decoded METAR 2018/07/20 13:51 UTC NOAA

AKRON-CANTON REGIONAL AIRPORT , OH, United States (KCAK) 40-55N 081-27W 377M
Jul 20, 2018 - 09:51 AM EDT / 2018.07.20 1351 UTC
Wind: from the S (180 degrees) at 15 MPH (13 KT):0
Visibility: 10 mile(s):0
Sky conditions: mostly cloudy
Temperature: 79.0 F (26.1 C)
Dew Point: 62.1 F (16.7 C)
Relative Humidity: 56%
Pressure (altimeter): 29.98 in. Hg (1015 hPa)
ob: KCAK 201351Z 18013KT 10SM SCT055 SCT150 BKN250 26/17 A2998 RMK AO2 SLP141 T02610167
cycle: 14

Station Type Date Time Source
KCAK TAF 2018/07/20 12:36 UTC NOAA

TAF KCAK 201133Z 2012/2112 15010KT P6SM BKN070
FM201500 17012KT P6SM BKN050
TEMPO 2017/2019 5SM -SHRA
FM201900 18012G20KT P6SM BKN070
TEMPO 2100/2103 3SM TSRA OVC025CB
FM210300 19012G20KT P6SM -SHRA OVC035
FM210700 19010KT P6SM BKN050


Example: see airport list